createdAt,value
2017-12-03T00:02:18.221Z,5.30
2017-12-03T00:04:47.286Z,5.36
2017-12-03T00:07:15.598Z,5.39
2017-12-03T00:09:45.389Z,5.45
2017-12-03T00:12:14.590Z,5.49
2017-12-03T00:14:43.714Z,5.53
2017-12-03T00:17:12.960Z,5.52
2017-12-03T00:19:41.268Z,5.50
2017-12-03T00:22:09.659Z,5.51
2017-12-03T00:24:38.745Z,5.53
2017-12-03T00:27:07.068Z,5.59
2017-12-03T00:29:35.366Z,5.66
2017-12-03T00:32:03.676Z,5.72
2017-12-03T00:34:32.070Z,5.76
2017-12-03T00:37:01.155Z,5.71
2017-12-03T00:39:29.484Z,5.70
2017-12-03T00:41:57.805Z,5.72
2017-12-03T00:44:26.132Z,5.71
2017-12-03T00:46:55.218Z,5.70
2017-12-03T00:49:23.552Z,5.71
2017-12-03T00:51:51.861Z,5.65
2017-12-03T00:54:20.169Z,5.58
2017-12-03T00:56:49.235Z,5.59
2017-12-03T00:59:17.578Z,5.60
2017-12-03T01:01:45.900Z,5.63
2017-12-03T01:04:14.220Z,5.68
2017-12-03T01:06:43.300Z,5.79
2017-12-03T01:09:12.383Z,5.84
2017-12-03T01:11:40.698Z,5.91
2017-12-03T01:14:09.833Z,5.89
2017-12-03T01:16:38.136Z,5.91
2017-12-03T01:19:06.468Z,5.90
2017-12-03T01:21:34.794Z,5.85
2017-12-03T01:24:03.902Z,5.88
2017-12-03T01:26:32.233Z,5.94
2017-12-03T01:29:01.153Z,5.96
2017-12-03T01:31:29.464Z,5.90
2017-12-03T01:33:58.568Z,5.82
2017-12-03T01:36:27.653Z,5.81
2017-12-03T01:38:55.948Z,5.86
2017-12-03T01:41:24.268Z,5.89
2017-12-03T01:43:52.589Z,5.85
2017-12-03T01:46:20.944Z,5.86
2017-12-03T01:48:49.259Z,5.86
2017-12-03T01:51:17.585Z,5.93
2017-12-03T01:53:45.978Z,5.99
2017-12-03T01:56:14.285Z,6.02
2017-12-03T01:58:42.597Z,6.02
2017-12-03T02:01:10.928Z,6.05
2017-12-03T02:03:39.356Z,6.06
2017-12-03T02:06:07.836Z,6.05
2017-12-03T02:08:36.180Z,6.07
2017-12-03T02:11:06.041Z,6.14
2017-12-03T02:13:34.350Z,6.19
2017-12-03T02:16:02.662Z,6.20
2017-12-03T02:18:30.976Z,6.17
2017-12-03T02:21:00.046Z,6.15
2017-12-03T02:23:28.362Z,6.11
2017-12-03T02:25:56.708Z,6.35
2017-12-03T02:28:25.042Z,6.54
2017-12-03T02:30:54.111Z,6.66
2017-12-03T02:33:22.438Z,6.70
2017-12-03T02:35:50.769Z,6.70
2017-12-03T02:38:19.105Z,6.77
2017-12-03T02:40:47.408Z,6.83
2017-12-03T02:43:15.720Z,6.87
2017-12-03T02:45:44.815Z,6.92
2017-12-03T02:48:13.187Z,6.85
2017-12-03T02:50:41.492Z,6.86
2017-12-03T02:53:10.580Z,6.91
2017-12-03T02:55:38.901Z,6.96
2017-12-03T02:58:07.232Z,6.99
2017-12-03T03:00:35.614Z,6.96
2017-12-03T03:03:04.200Z,6.95
2017-12-03T03:05:32.514Z,6.93
2017-12-03T03:08:00.836Z,6.97
2017-12-03T03:10:29.166Z,7.00
2017-12-03T03:12:58.336Z,7.04
2017-12-03T03:15:26.650Z,6.99
2017-12-03T03:17:55.786Z,6.96
2017-12-03T03:20:24.872Z,7.00
2017-12-03T03:22:53.186Z,6.98
2017-12-03T03:25:21.520Z,6.89
2017-12-03T03:27:49.840Z,6.85
2017-12-03T03:30:18.155Z,6.82
2017-12-03T03:32:47.337Z,6.76
2017-12-03T03:35:15.656Z,6.73
2017-12-03T03:37:44.737Z,6.72
2017-12-03T03:40:13.056Z,6.73
2017-12-03T03:42:41.362Z,6.77
2017-12-03T03:45:09.678Z,6.80
2017-12-03T03:47:38.029Z,6.83
2017-12-03T03:50:06.346Z,6.85
2017-12-03T03:52:35.562Z,6.86
2017-12-03T03:55:03.873Z,6.89
2017-12-03T03:57:32.190Z,6.94
2017-12-03T04:00:00.492Z,6.94
2017-12-03T04:02:29.735Z,6.93
2017-12-03T04:04:58.062Z,6.90
2017-12-03T04:07:26.384Z,6.91
2017-12-03T04:09:54.700Z,6.89
2017-12-03T04:12:23.054Z,6.87
2017-12-03T04:14:51.376Z,6.85
2017-12-03T04:17:19.674Z,6.83
2017-12-03T04:19:47.984Z,6.81
2017-12-03T04:22:16.311Z,6.81
2017-12-03T04:24:44.667Z,6.80
2017-12-03T04:27:12.972Z,6.79
2017-12-03T04:29:41.292Z,6.77
2017-12-03T04:32:10.369Z,6.81
2017-12-03T04:34:38.687Z,6.83
2017-12-03T04:37:07.018Z,6.84
2017-12-03T04:39:35.454Z,6.88
2017-12-03T04:42:03.786Z,6.90
2017-12-03T04:44:32.096Z,6.87
2017-12-03T04:47:00.409Z,6.84
2017-12-03T04:49:28.729Z,6.84
2017-12-03T04:51:57.825Z,6.84
2017-12-03T04:54:27.647Z,6.80
2017-12-03T04:56:55.963Z,6.83
2017-12-03T04:59:24.301Z,6.87
2017-12-03T05:01:52.709Z,6.90
2017-12-03T05:04:21.802Z,6.91
2017-12-03T05:06:50.875Z,6.96
2017-12-03T05:09:19.419Z,7.00
2017-12-03T05:11:47.742Z,6.99
2017-12-03T05:14:16.051Z,7.00
2017-12-03T05:16:45.138Z,7.01
2017-12-03T05:19:13.458Z,7.01
2017-12-03T05:21:41.889Z,7.02
2017-12-03T05:24:10.209Z,7.03
2017-12-03T05:26:38.537Z,6.94
2017-12-03T05:29:06.856Z,6.92
2017-12-03T05:31:35.932Z,6.91
2017-12-03T05:34:05.019Z,6.90
2017-12-03T05:36:33.339Z,6.93
2017-12-03T05:39:02.430Z,6.93
2017-12-03T05:41:31.508Z,6.95
2017-12-03T05:43:59.808Z,6.91
2017-12-03T05:46:28.147Z,6.89
2017-12-03T05:48:56.445Z,6.86
2017-12-03T05:51:24.764Z,6.83
2017-12-03T05:53:53.086Z,6.85
2017-12-03T05:56:21.383Z,6.84
2017-12-03T05:58:49.678Z,6.83
2017-12-03T06:01:18.083Z,6.83
2017-12-03T06:03:47.228Z,6.85
2017-12-03T06:06:15.540Z,6.85
2017-12-03T06:08:44.040Z,6.84
2017-12-03T06:11:13.265Z,6.86
2017-12-03T06:13:41.566Z,6.92
2017-12-03T06:16:09.867Z,6.97
2017-12-03T06:18:38.177Z,6.99
2017-12-03T06:21:07.267Z,6.99
2017-12-03T06:23:35.587Z,6.99
2017-12-03T06:26:03.893Z,6.96
2017-12-03T06:28:32.211Z,6.94
2017-12-03T06:31:00.535Z,6.95
2017-12-03T06:33:28.841Z,6.97
2017-12-03T06:35:57.152Z,6.97
2017-12-03T06:38:26.243Z,6.96
2017-12-03T06:40:54.552Z,7.00
2017-12-03T06:43:23.619Z,7.03
2017-12-03T06:45:53.440Z,7.01
2017-12-03T06:48:22.521Z,6.99
2017-12-03T06:50:50.835Z,6.96
2017-12-03T06:53:19.908Z,7.02
2017-12-03T06:55:48.215Z,7.07
2017-12-03T06:58:19.147Z,7.07
2017-12-03T07:00:48.233Z,7.10
2017-12-03T07:03:16.557Z,7.09
2017-12-03T07:05:44.910Z,7.07
2017-12-03T07:08:13.993Z,7.06
2017-12-03T07:10:43.860Z,7.07
2017-12-03T07:13:12.178Z,7.09
2017-12-03T07:15:40.523Z,7.09
2017-12-03T07:18:08.848Z,7.12
2017-12-03T07:20:37.924Z,7.15
2017-12-03T07:23:06.394Z,7.11
2017-12-03T07:25:34.685Z,7.13
2017-12-03T07:28:03.009Z,7.16
2017-12-03T07:30:32.093Z,7.16
2017-12-03T07:33:00.415Z,7.20
2017-12-03T07:35:28.756Z,7.25
2017-12-03T07:37:57.079Z,7.24
2017-12-03T07:40:25.383Z,7.23
2017-12-03T07:42:53.708Z,7.26
2017-12-03T07:45:22.129Z,7.32
2017-12-03T07:47:50.513Z,7.40
2017-12-03T07:50:18.813Z,7.43
2017-12-03T07:52:47.111Z,7.42
2017-12-03T07:55:15.419Z,7.43
2017-12-03T07:57:44.499Z,7.45
2017-12-03T08:00:14.322Z,7.49
2017-12-03T08:02:42.707Z,7.51
2017-12-03T08:05:11.781Z,7.51
2017-12-03T08:07:40.120Z,7.53
2017-12-03T08:10:08.463Z,7.55
2017-12-03T08:12:36.793Z,7.56
2017-12-03T08:15:05.103Z,7.55
2017-12-03T08:17:33.439Z,7.59
2017-12-03T08:20:01.745Z,7.66
2017-12-03T08:22:30.062Z,7.71
2017-12-03T08:24:58.413Z,7.72
2017-12-03T08:27:26.733Z,7.71
2017-12-03T08:29:55.049Z,7.69
2017-12-03T08:32:23.343Z,7.67
2017-12-03T08:34:52.486Z,7.69
2017-12-03T08:37:21.133Z,7.76
2017-12-03T08:39:49.445Z,7.82
2017-12-03T08:42:17.808Z,7.87
2017-12-03T08:44:46.219Z,7.91
2017-12-03T08:47:15.261Z,7.94
2017-12-03T08:49:44.543Z,7.97
2017-12-03T08:52:13.647Z,7.96
2017-12-03T08:54:46.903Z,7.98
2017-12-03T08:57:16.095Z,8.04
2017-12-03T08:59:44.409Z,8.10
2017-12-03T09:02:13.537Z,8.15
2017-12-03T09:04:41.861Z,8.16
2017-12-03T09:07:10.180Z,8.18
2017-12-03T09:09:39.261Z,8.20
2017-12-03T09:12:07.645Z,8.19
2017-12-03T09:14:36.804Z,8.19
2017-12-03T09:17:05.119Z,8.20
2017-12-03T09:19:33.429Z,8.23
2017-12-03T09:22:01.741Z,8.23
2017-12-03T09:24:30.044Z,8.22
2017-12-03T09:26:58.353Z,8.27
2017-12-03T09:29:27.417Z,8.34
2017-12-03T09:31:55.750Z,8.40
2017-12-03T09:34:24.073Z,8.44
2017-12-03T09:36:52.369Z,8.47
2017-12-03T09:39:20.709Z,8.48
2017-12-03T09:41:49.015Z,8.49
2017-12-03T09:44:17.385Z,8.49
2017-12-03T09:46:45.743Z,8.51
2017-12-03T09:49:14.094Z,8.53
2017-12-03T09:51:42.395Z,8.54
2017-12-03T09:54:10.718Z,8.54
2017-12-03T09:56:39.039Z,8.56
2017-12-03T09:59:08.455Z,8.59
2017-12-03T10:01:37.535Z,8.59
2017-12-03T10:04:05.843Z,8.57
2017-12-03T10:06:34.232Z,8.55
2017-12-03T10:09:02.531Z,8.56
2017-12-03T10:11:30.843Z,8.57
2017-12-03T10:13:59.149Z,8.59
2017-12-03T10:16:27.519Z,8.58
2017-12-03T10:18:55.868Z,8.62
2017-12-03T10:21:25.725Z,8.66
2017-12-03T10:23:54.033Z,8.65
2017-12-03T10:26:22.360Z,8.60
2017-12-03T10:28:50.773Z,8.56
2017-12-03T10:31:20.597Z,8.56
2017-12-03T10:33:48.930Z,8.59
2017-12-03T10:36:17.245Z,8.57
2017-12-03T10:38:46.381Z,8.57
2017-12-03T10:41:15.487Z,8.56
2017-12-03T10:43:43.805Z,8.53
2017-12-03T10:46:12.115Z,8.55
2017-12-03T10:48:41.217Z,8.58
2017-12-03T10:51:10.322Z,8.60
2017-12-03T10:53:38.666Z,8.62
2017-12-03T10:56:06.989Z,8.62
2017-12-03T10:58:36.479Z,8.62
2017-12-03T11:01:05.087Z,8.60
2017-12-03T11:03:34.239Z,8.56
2017-12-03T11:06:03.075Z,8.58
2017-12-03T11:08:31.932Z,8.63
2017-12-03T11:11:01.701Z,8.73
2017-12-03T11:13:30.729Z,8.83
2017-12-03T11:15:59.155Z,8.89
2017-12-03T11:18:28.372Z,8.91
2017-12-03T11:20:56.730Z,8.95
2017-12-03T11:23:25.025Z,9.00
2017-12-03T11:25:53.412Z,9.01
2017-12-03T11:28:21.765Z,9.02
2017-12-03T11:30:50.957Z,9.03
2017-12-03T11:33:21.646Z,9.09
2017-12-03T11:35:51.044Z,9.12
2017-12-03T11:38:19.380Z,9.13
2017-12-03T11:40:49.205Z,9.16
2017-12-03T11:43:17.565Z,9.18
2017-12-03T11:45:45.912Z,9.20
2017-12-03T11:48:14.232Z,9.25
2017-12-03T11:50:43.306Z,9.29
2017-12-03T11:53:11.611Z,9.33
2017-12-03T11:55:40.694Z,9.47
2017-12-03T11:58:09.011Z,9.63
2017-12-03T12:00:38.150Z,9.75
2017-12-03T12:03:06.849Z,9.83
2017-12-03T12:05:35.170Z,9.88
2017-12-03T12:08:04.244Z,9.92
2017-12-03T12:10:33.321Z,9.95
2017-12-03T12:13:01.755Z,9.97
2017-12-03T12:15:30.114Z,10.02
2017-12-03T12:17:58.449Z,10.11
2017-12-03T12:20:27.082Z,10.15
2017-12-03T12:22:55.434Z,10.22
2017-12-03T12:25:23.757Z,10.37
2017-12-03T12:27:52.888Z,10.48
2017-12-03T12:30:21.996Z,10.51
2017-12-03T12:32:51.064Z,10.46
2017-12-03T12:35:19.430Z,10.46
2017-12-03T12:37:47.760Z,10.46
2017-12-03T12:40:16.108Z,10.46
2017-12-03T12:42:45.237Z,10.50
2017-12-03T12:45:13.588Z,10.55
2017-12-03T12:47:42.048Z,10.55
2017-12-03T12:50:10.352Z,10.53
2017-12-03T12:52:38.717Z,10.57
2017-12-03T12:55:07.049Z,10.63
2017-12-03T12:57:35.372Z,10.71
2017-12-03T13:00:03.702Z,10.74
2017-12-03T13:02:32.202Z,10.75
2017-12-03T13:05:00.523Z,10.80
2017-12-03T13:07:28.942Z,10.87
2017-12-03T13:09:58.056Z,10.90
2017-12-03T13:12:26.410Z,10.91
2017-12-03T13:14:54.763Z,10.93
2017-12-03T13:17:23.084Z,10.92
2017-12-03T13:19:51.404Z,10.95
2017-12-03T13:22:19.723Z,10.95
2017-12-03T13:24:48.062Z,10.94
2017-12-03T13:27:16.361Z,10.95
2017-12-03T13:29:44.688Z,10.98
2017-12-03T13:32:13.014Z,10.98
2017-12-03T13:34:41.390Z,11.03
2017-12-03T13:37:09.828Z,11.10
2017-12-03T13:39:38.260Z,11.19
2017-12-03T13:42:06.588Z,11.28
2017-12-03T13:44:35.728Z,11.35
2017-12-03T13:47:04.078Z,11.40
2017-12-03T13:49:32.410Z,11.41
2017-12-03T13:52:00.760Z,11.43
2017-12-03T13:54:29.844Z,11.43
2017-12-03T13:56:58.161Z,11.43
2017-12-03T13:59:26.547Z,11.44
2017-12-03T14:01:55.580Z,11.48
2017-12-03T14:04:23.938Z,11.51
2017-12-03T14:06:52.246Z,11.54
2017-12-03T14:09:20.608Z,11.60
2017-12-03T14:11:48.922Z,11.64
2017-12-03T14:14:17.242Z,11.65
2017-12-03T14:16:45.603Z,11.59
2017-12-03T14:19:13.956Z,11.53
2017-12-03T14:21:42.262Z,11.21
2017-12-03T14:24:11.442Z,10.94
2017-12-03T14:26:39.832Z,10.94
2017-12-03T14:29:09.808Z,10.79
2017-12-03T14:31:38.718Z,10.62
2017-12-03T14:34:07.028Z,10.37
2017-12-03T14:36:35.395Z,10.26
2017-12-03T14:39:03.726Z,10.14
2017-12-03T14:41:32.079Z,10.05
2017-12-03T14:44:01.154Z,10.01
2017-12-03T14:46:29.487Z,9.91
2017-12-03T14:48:57.790Z,9.85
2017-12-03T14:51:26.112Z,9.77
2017-12-03T14:53:54.440Z,9.73
2017-12-03T14:56:22.767Z,9.72
2017-12-03T14:58:51.126Z,9.73
2017-12-03T15:01:19.427Z,9.76
2017-12-03T15:03:48.512Z,9.81
2017-12-03T15:06:16.827Z,9.86
2017-12-03T15:08:47.102Z,9.89
2017-12-03T15:11:15.418Z,9.91
2017-12-03T15:13:43.737Z,9.90
2017-12-03T15:16:12.068Z,9.90
2017-12-03T15:18:40.403Z,9.91
2017-12-03T15:21:08.720Z,9.92
2017-12-03T15:23:37.178Z,9.91
2017-12-03T15:26:05.494Z,9.89
2017-12-03T15:28:33.956Z,9.87
2017-12-03T15:31:02.278Z,9.87
2017-12-03T15:33:31.461Z,9.86
2017-12-03T15:35:59.778Z,9.85
2017-12-03T15:38:28.862Z,9.89
2017-12-03T15:40:57.952Z,9.93
2017-12-03T15:43:26.402Z,9.94
2017-12-03T15:45:54.764Z,9.96
2017-12-03T15:48:23.191Z,9.95
2017-12-03T15:50:51.499Z,9.94
2017-12-03T15:53:20.599Z,9.91
2017-12-03T15:55:49.678Z,9.88
2017-12-03T15:58:18.786Z,9.83
2017-12-03T16:00:48.101Z,9.80
2017-12-03T16:03:17.178Z,9.77
2017-12-03T16:05:46.273Z,9.75
2017-12-03T16:08:15.349Z,9.71
2017-12-03T16:10:43.672Z,9.66
2017-12-03T16:13:12.801Z,9.63
2017-12-03T16:15:41.132Z,9.60
2017-12-03T16:18:10.192Z,9.57
2017-12-03T16:20:38.507Z,9.56
2017-12-03T16:23:06.827Z,9.55
2017-12-03T16:25:35.959Z,9.53
2017-12-03T16:28:04.285Z,9.52
2017-12-03T16:30:32.600Z,9.50
2017-12-03T16:33:00.926Z,9.52
2017-12-03T16:35:29.955Z,9.54
2017-12-03T16:37:59.036Z,9.56
2017-12-03T16:40:28.112Z,9.58
2017-12-03T16:42:56.688Z,9.59
2017-12-03T16:45:25.042Z,9.62
2017-12-03T16:47:53.371Z,9.64
2017-12-03T16:50:23.222Z,9.67
2017-12-03T16:52:52.328Z,9.68
2017-12-03T16:55:20.644Z,9.68
2017-12-03T16:57:49.062Z,9.70
2017-12-03T17:00:17.375Z,9.70
2017-12-03T17:02:45.673Z,9.69
2017-12-03T17:05:13.987Z,9.69
2017-12-03T17:07:42.297Z,9.67
2017-12-03T17:10:10.645Z,9.63
2017-12-03T17:12:38.972Z,9.60
2017-12-03T17:15:08.063Z,9.60
2017-12-03T17:17:37.184Z,9.61
2017-12-03T17:20:05.525Z,9.64
2017-12-03T17:22:33.880Z,9.67
2017-12-03T17:25:02.177Z,9.68
2017-12-03T17:27:30.517Z,9.71
2017-12-03T17:29:58.823Z,9.72
2017-12-03T17:32:27.190Z,9.72
2017-12-03T17:34:55.507Z,9.71
2017-12-03T17:37:24.573Z,9.71
2017-12-03T17:39:52.889Z,9.69
2017-12-03T17:42:21.984Z,9.70
2017-12-03T17:44:51.801Z,9.71
2017-12-03T17:47:20.143Z,9.71
2017-12-03T17:49:48.465Z,9.71
2017-12-03T17:52:17.709Z,9.70
2017-12-03T17:54:46.054Z,9.68
2017-12-03T17:57:15.149Z,9.67
2017-12-03T17:59:44.287Z,9.63
2017-12-03T18:02:12.603Z,9.66
2017-12-03T18:04:40.936Z,9.68
2017-12-03T18:07:09.253Z,9.70
2017-12-03T18:09:37.583Z,9.73
2017-12-03T18:12:05.891Z,9.76
2017-12-03T18:14:34.191Z,9.78
2017-12-03T18:17:02.602Z,9.79
2017-12-03T18:19:30.942Z,9.82
2017-12-03T18:21:59.260Z,9.84
2017-12-03T18:24:27.560Z,9.84
2017-12-03T18:26:55.863Z,9.85
2017-12-03T18:29:24.195Z,9.86
2017-12-03T18:31:52.498Z,9.87
2017-12-03T18:34:20.851Z,9.87
2017-12-03T18:36:49.171Z,9.89
2017-12-03T18:39:17.511Z,9.89
2017-12-03T18:41:45.848Z,9.90
2017-12-03T18:44:14.202Z,9.92
2017-12-03T18:46:42.535Z,9.95
2017-12-03T18:49:10.822Z,9.97
2017-12-03T18:51:39.153Z,9.97
2017-12-03T18:54:07.473Z,9.97
2017-12-03T18:56:35.995Z,9.99
2017-12-03T18:59:04.309Z,9.97
2017-12-03T19:01:32.652Z,9.91
2017-12-03T19:04:00.971Z,9.86
2017-12-03T19:06:30.059Z,9.85
2017-12-03T19:08:58.385Z,9.83
2017-12-03T19:11:26.713Z,9.79
2017-12-03T19:13:55.177Z,9.75
2017-12-03T19:16:23.529Z,9.75
2017-12-03T19:18:51.857Z,9.74
2017-12-03T19:21:20.167Z,9.73
2017-12-03T19:23:49.280Z,9.71
2017-12-03T19:26:18.540Z,9.68
2017-12-03T19:28:47.138Z,9.64
2017-12-03T19:31:15.479Z,9.62
2017-12-03T19:33:43.850Z,9.63
2017-12-03T19:36:12.153Z,9.66
2017-12-03T19:38:40.626Z,9.69
2017-12-03T19:41:08.956Z,9.71
2017-12-03T19:43:37.296Z,9.74
2017-12-03T19:46:05.583Z,9.76
2017-12-03T19:48:33.911Z,9.80
2017-12-03T19:51:02.976Z,9.85
2017-12-03T19:53:32.395Z,9.89
2017-12-03T19:56:01.517Z,9.92
2017-12-03T19:58:29.832Z,9.96
2017-12-03T20:00:59.123Z,10.01
2017-12-03T20:03:27.438Z,10.06
2017-12-03T20:05:56.021Z,10.09
2017-12-03T20:08:24.366Z,10.08
2017-12-03T20:10:52.683Z,10.02
2017-12-03T20:13:21.011Z,9.98
2017-12-03T20:15:49.460Z,10.01
2017-12-03T20:18:19.982Z,10.02
2017-12-03T20:20:48.817Z,9.96
2017-12-03T20:23:17.886Z,9.90
2017-12-03T20:25:46.244Z,9.84
2017-12-03T20:28:14.551Z,9.81
2017-12-03T20:30:42.853Z,9.81
2017-12-03T20:33:11.910Z,9.83
2017-12-03T20:35:40.229Z,9.80
2017-12-03T20:38:09.322Z,9.78
2017-12-03T20:40:38.396Z,9.81
2017-12-03T20:43:07.462Z,9.82
2017-12-03T20:45:35.794Z,9.79
2017-12-03T20:48:04.117Z,9.76
2017-12-03T20:50:32.469Z,9.75
2017-12-03T20:53:01.561Z,9.72
2017-12-03T20:55:30.670Z,9.67
2017-12-03T20:57:59.905Z,9.61
2017-12-03T21:00:28.295Z,9.55
2017-12-03T21:02:56.609Z,9.51
2017-12-03T21:05:24.933Z,9.49
2017-12-03T21:07:53.233Z,9.48
2017-12-03T21:10:21.554Z,9.48
2017-12-03T21:12:49.865Z,9.48
2017-12-03T21:15:18.989Z,9.49
2017-12-03T21:17:47.318Z,9.48
2017-12-03T21:20:17.176Z,9.49
2017-12-03T21:22:45.655Z,9.49
2017-12-03T21:25:13.948Z,9.51
2017-12-03T21:27:42.324Z,9.53
2017-12-03T21:30:10.645Z,9.55
2017-12-03T21:32:38.958Z,9.57
2017-12-03T21:35:08.066Z,9.59
2017-12-03T21:37:37.157Z,9.59
2017-12-03T21:40:06.300Z,9.60
2017-12-03T21:42:34.603Z,9.62
2017-12-03T21:45:02.934Z,9.63
2017-12-03T21:47:31.232Z,9.65
2017-12-03T21:49:59.526Z,9.66
2017-12-03T21:52:27.832Z,9.67
2017-12-03T21:54:56.144Z,9.68
2017-12-03T21:57:25.222Z,9.70
2017-12-03T21:59:54.276Z,9.71
2017-12-03T22:02:22.600Z,9.73
2017-12-03T22:04:51.710Z,9.73
2017-12-03T22:07:20.795Z,9.74
2017-12-03T22:09:49.092Z,9.74
2017-12-03T22:12:18.195Z,9.75
2017-12-03T22:14:47.280Z,9.77
2017-12-03T22:17:16.356Z,9.79
2017-12-03T22:19:45.448Z,9.82
2017-12-03T22:22:13.758Z,9.85
2017-12-03T22:24:42.100Z,9.73
2017-12-03T22:27:10.523Z,9.59
2017-12-03T22:29:38.843Z,9.55
2017-12-03T22:32:07.154Z,9.55
2017-12-03T22:34:35.530Z,9.54
2017-12-03T22:37:03.863Z,9.56
2017-12-03T22:39:32.948Z,9.55
2017-12-03T22:42:01.518Z,9.66
2017-12-03T22:44:29.833Z,9.79
2017-12-03T22:46:58.890Z,9.83
2017-12-03T22:49:27.202Z,9.84
2017-12-03T22:51:56.296Z,9.85
2017-12-03T22:54:25.414Z,9.86
2017-12-03T22:56:53.732Z,9.88
2017-12-03T22:59:22.055Z,9.89
2017-12-03T23:01:51.146Z,9.90
2017-12-03T23:04:19.466Z,9.90
2017-12-03T23:06:47.768Z,9.92
2017-12-03T23:09:16.074Z,9.89
2017-12-03T23:11:44.420Z,9.90
2017-12-03T23:14:12.736Z,9.91
2017-12-03T23:16:41.046Z,9.93
2017-12-03T23:19:10.120Z,9.93
2017-12-03T23:21:38.427Z,9.93
2017-12-03T23:24:07.505Z,9.92
2017-12-03T23:26:36.594Z,9.94
2017-12-03T23:29:04.926Z,9.93
2017-12-03T23:31:33.256Z,9.95
2017-12-03T23:34:02.328Z,9.92
2017-12-03T23:36:30.636Z,9.85
2017-12-03T23:38:58.948Z,9.76
2017-12-03T23:41:28.016Z,9.68
2017-12-03T23:43:56.340Z,9.59
2017-12-03T23:46:24.664Z,9.53
2017-12-03T23:48:52.984Z,9.59
2017-12-03T23:51:22.053Z,9.54
2017-12-03T23:53:50.425Z,9.39
2017-12-03T23:56:18.766Z,9.39
2017-12-03T23:58:47.084Z,9.39
